Terminal Aerodrome Forecast
Issued by NWS

Home | Current Version | Previous Version | Text Only | Print | Product List | Glossary On
Versions: 1 2 3 4 5 6 7 8 9 10 11 12 13 14 15 16 17 18 19 20
109
FTUS46 KMFR 230841 AAA
TAFOTH
TAF AMD
KOTH 230841Z 2309/2406 14005KT P6SM OVC007
     FM231500 VRB03KT P6SM OVC008
     FM231700 32006KT P6SM SCT008 BKN015
     FM231900 35018G30KT P6SM SCT020
     FM240300 36010KT P6SM BKN015=

USA.gov is the U.S. government's official web portal to all federal, state and local government web resources and services.